Impacts TAF Board
For situational awareness. Not to be used for flight planning purposes.
IDs:

KCLT - Charlotte/Douglas In, NC, US

Issued at 0156 UTC 10 Dec 2018
Updated at 0350 UTC 10 Dec 2018
Potential Impact None Slight Moderate High
Time0252Z 10/04Z 10/05Z 10/06Z 10/07Z 10/08Z 10/09Z 10/10Z 10/11Z 10/12Z 10/13Z 10/14Z 10/15Z 10/16Z>>
Type OBS PRVL PRVL PRVL PRVL PRVL PRVL PRVL PRVL PRVL PRVL PRVL PRVL
  [PRB30]  
PRVL
  [PRB30]  
VIS 3 3 3 3 2 2 2 2 2 2 2 2 3
  [2]  
3
  [2]  
CIG 7 7 7 7 5 5 5 5 5 5 5 5 8
  [7]  
8
  [7]  
Cover OVC OVC OVC OVC OVC OVC OVC OVC OVC OVC OVC OVC OVC
  [OVC]  
OVC
  [OVC]  
FltCat IFR IFR IFR IFR IFR IFR IFR IFR IFR IFR IFR IFR IFR
  [IFR]  
IFR
  [IFR]  
WX -DZ BR -DZ -PL BR -DZ -PL BR -DZ -PL BR -SN -PL BR -SN -PL BR -SN -PL BR -SN -PL BR -SN -PL BR -SN -PL BR -SN -PL BR -SN -PL BR BR
  [-SN BR]  
BR
  [-SN BR]  
WDir 10 20 20 20 20 20 20 20 20 20 20 20 20
[20]
20
[20]
WSpd 10 9 9 9 8 8 8 8 8 8 8 8 8
  [8]  
8
  [8]  
WGst -- -- -- -- 15 15 15 15 15 15 15 15 17
  [17]  
17
  [17]  
Raw TAF
KCLT 100156Z 1002/1106 02009KT 3SM -DZPL BR OVC007
  FM100700 02008G15KT 2SM -SNPL BR OVC005
  FM101500 02008G17KT 3SM BR BKN008 OVC011
  PROB30 1015/1018 2SM -SN BR OVC007
  FM101800 02007KT 3SM BR VCSH OVC014
  FM102200 35003KT 5SM BR OVC020
  FM110000 35003KT P6SM OVC045


Raw METAR
KCLT 100252Z 01010KT 3SM -DZ BR OVC007 01/01 A2998 RMK AO2 RAE0159DZB50 CIG 004V009 SLP158 P0000 60000 T00110006 56004 $
KCLT 100152Z 01009KT 3SM -RA BR OVC007 01/01 A2999 RMK AO2 RAE14B33 SLP158 P0000 T00110006 $
KCLT 100052Z 02011KT 4SM -RA BR OVC007 01/00 A2998 RMK AO2 SLP157 P0000 T00110000 $

METAR Board
Radar Display
Forecast Discussion
For situational awareness. Not to be used for flight planning purposes.